createdAt,value
2019-05-01T00:01:31.732Z,12.68
2019-05-01T00:04:05.635Z,12.67
2019-05-01T00:06:36.881Z,12.73
2019-05-01T00:09:10.072Z,12.71
2019-05-01T00:11:39.868Z,12.66
2019-05-01T00:14:09.933Z,12.78
2019-05-01T00:16:40.166Z,12.71
2019-05-01T00:19:11.153Z,12.64
2019-05-01T00:21:40.759Z,12.61
2019-05-01T00:24:10.384Z,12.67
2019-05-01T00:26:39.990Z,12.59
2019-05-01T00:29:09.622Z,12.57
2019-05-01T00:31:39.217Z,12.67
2019-05-01T00:34:08.848Z,12.78
2019-05-01T00:36:38.484Z,12.76
2019-05-01T00:39:09.829Z,12.75
2019-05-01T00:41:39.436Z,12.75
2019-05-01T00:44:09.060Z,12.75
2019-05-01T00:46:38.954Z,12.75
2019-05-01T00:49:08.566Z,12.77
2019-05-01T00:51:38.173Z,12.94
2019-05-01T00:54:07.786Z,13.15
2019-05-01T00:56:41.808Z,13.41
2019-05-01T00:59:22.037Z,13.61
2019-05-01T01:01:56.370Z,13.77
2019-05-01T01:04:26.074Z,13.87
2019-05-01T01:06:55.699Z,13.99
2019-05-01T01:09:25.362Z,14.08
2019-05-01T01:11:54.974Z,14.12
2019-05-01T01:14:24.611Z,14.22
2019-05-01T01:16:54.223Z,14.27
2019-05-01T01:19:23.928Z,14.30
2019-05-01T01:21:53.902Z,14.28
2019-05-01T01:24:23.882Z,14.29
2019-05-01T01:26:53.909Z,14.27
2019-05-01T01:29:23.563Z,14.26
2019-05-01T01:31:53.190Z,14.19
2019-05-01T01:34:22.815Z,14.13
2019-05-01T01:36:52.424Z,14.10
2019-05-01T01:39:22.079Z,14.06
2019-05-01T01:41:52.150Z,14.13
2019-05-01T01:44:38.907Z,14.18
2019-05-01T01:47:08.874Z,14.18
2019-05-01T01:49:38.670Z,14.20
2019-05-01T01:52:08.707Z,14.19
2019-05-01T01:54:38.330Z,14.21
2019-05-01T01:57:07.937Z,14.22
2019-05-01T01:59:37.758Z,14.28
2019-05-01T02:02:11.726Z,14.39
2019-05-01T02:04:48.882Z,14.43
2019-05-01T02:07:18.662Z,14.53
2019-05-01T02:09:48.352Z,14.61
2019-05-01T02:12:19.085Z,14.65
2019-05-01T02:14:49.293Z,14.67
2019-05-01T02:17:18.920Z,14.69
2019-05-01T02:19:48.530Z,14.77
2019-05-01T02:22:18.151Z,14.83
2019-05-01T02:24:47.765Z,14.88
2019-05-01T02:27:19.081Z,14.99
2019-05-01T02:29:51.471Z,15.01
2019-05-01T02:32:24.268Z,15.00
2019-05-01T02:34:56.192Z,15.02
2019-05-01T02:37:28.896Z,15.02
2019-05-01T02:40:01.677Z,14.99
2019-05-01T02:42:35.059Z,15.02
2019-05-01T02:45:06.280Z,15.12
2019-05-01T02:47:38.702Z,15.18
2019-05-01T02:50:11.898Z,15.23
2019-05-01T02:52:44.127Z,15.28
2019-05-01T02:55:17.127Z,15.35
2019-05-01T02:57:48.146Z,15.36
2019-05-01T03:00:19.363Z,15.35
2019-05-01T03:02:49.774Z,15.40
2019-05-01T03:05:19.425Z,15.37
2019-05-01T03:07:49.270Z,15.35
2019-05-01T03:10:19.698Z,15.40
2019-05-01T03:12:52.424Z,15.40
2019-05-01T03:15:25.591Z,15.42
2019-05-01T03:17:57.742Z,15.45
2019-05-01T03:20:30.146Z,15.42
2019-05-01T03:23:16.418Z,15.41
2019-05-01T03:25:46.187Z,15.47
2019-05-01T03:28:16.031Z,15.43
2019-05-01T03:30:46.663Z,15.40
2019-05-01T03:33:16.593Z,15.38
2019-05-01T03:35:46.564Z,15.36
2019-05-01T03:38:16.942Z,15.37
2019-05-01T03:40:46.992Z,15.36
2019-05-01T03:43:17.035Z,15.32
2019-05-01T03:45:46.939Z,15.29
2019-05-01T03:48:16.706Z,15.26
2019-05-01T03:50:47.443Z,15.18
2019-05-01T03:53:18.126Z,15.12
2019-05-01T03:55:48.240Z,15.13
2019-05-01T03:58:18.796Z,15.19
2019-05-01T04:00:53.417Z,15.27
2019-05-01T04:03:36.791Z,15.34
2019-05-01T04:06:06.775Z,15.30
2019-05-01T04:08:37.403Z,15.27
2019-05-01T04:11:07.441Z,15.27
2019-05-01T04:13:37.309Z,15.22
2019-05-01T04:16:06.933Z,15.20
2019-05-01T04:18:36.740Z,15.16
2019-05-01T04:21:09.102Z,15.19
2019-05-01T04:23:41.546Z,15.16
2019-05-01T04:26:11.973Z,15.07
2019-05-01T04:28:43.223Z,15.05
2019-05-01T04:31:23.843Z,15.14
2019-05-01T04:33:55.873Z,15.07
2019-05-01T04:36:42.043Z,15.07
2019-05-01T04:39:11.880Z,15.13
2019-05-01T04:41:41.716Z,15.15
2019-05-01T04:44:11.643Z,15.17
2019-05-01T04:46:41.948Z,15.18
2019-05-01T04:49:11.694Z,15.26
2019-05-01T04:51:41.874Z,15.35
2019-05-01T04:54:11.487Z,15.37
2019-05-01T04:56:41.377Z,15.41
2019-05-01T04:59:11.755Z,15.51
2019-05-01T05:01:57.339Z,15.61
2019-05-01T05:04:27.641Z,15.64
2019-05-01T05:06:57.802Z,15.66
2019-05-01T05:09:38.680Z,15.70
2019-05-01T05:12:11.350Z,15.74
2019-05-01T05:14:55.094Z,15.77
2019-05-01T05:17:26.751Z,15.75
2019-05-01T05:19:56.994Z,15.74
2019-05-01T05:22:26.791Z,15.78
2019-05-01T05:24:56.393Z,15.83
2019-05-01T05:27:26.622Z,15.88
2019-05-01T05:29:58.229Z,15.90
2019-05-01T05:32:30.371Z,16.00
2019-05-01T05:35:02.515Z,16.11
2019-05-01T05:37:38.148Z,16.25
2019-05-01T05:40:08.397Z,16.39
2019-05-01T05:42:38.824Z,16.58
2019-05-01T05:45:08.776Z,16.72
2019-05-01T05:47:38.936Z,16.88
2019-05-01T05:50:10.595Z,17.00
2019-05-01T05:52:55.931Z,17.13
2019-05-01T05:55:32.379Z,17.23
2019-05-01T05:58:05.910Z,17.36
2019-05-01T06:00:44.297Z,17.46
2019-05-01T06:03:35.235Z,17.47
2019-05-01T06:06:09.913Z,17.46
2019-05-01T06:08:43.855Z,17.54
2019-05-01T06:11:19.145Z,17.66
2019-05-01T06:13:57.171Z,17.76
2019-05-01T06:16:31.522Z,17.79
2019-05-01T06:19:02.775Z,17.79
2019-05-01T06:21:34.952Z,17.79
2019-05-01T06:24:10.491Z,17.77
2019-05-01T06:26:40.263Z,17.83
2019-05-01T06:29:09.886Z,17.92
2019-05-01T06:31:39.991Z,18.01
2019-05-01T06:34:09.785Z,18.10
2019-05-01T06:36:44.295Z,18.24
2019-05-01T06:39:15.556Z,18.36
2019-05-01T06:41:46.103Z,18.55
2019-05-01T06:44:19.874Z,18.63
2019-05-01T06:47:07.460Z,18.60
2019-05-01T06:49:53.353Z,18.78
2019-05-01T06:52:29.234Z,18.95
2019-05-01T06:54:58.955Z,19.19
2019-05-01T06:57:30.075Z,19.44
2019-05-01T07:00:07.623Z,19.84
2019-05-01T07:02:35.055Z,20.01
2019-05-01T07:05:09.038Z,19.89
2019-05-01T07:07:38.861Z,20.01
2019-05-01T07:10:09.196Z,20.14
2019-05-01T07:12:39.417Z,20.19
2019-05-01T07:15:09.366Z,20.01
2019-05-01T07:17:39.496Z,19.90
2019-05-01T07:20:16.936Z,19.85
2019-05-01T07:22:46.784Z,19.88
2019-05-01T07:25:16.650Z,19.95
2019-05-01T07:27:46.250Z,20.17
2019-05-01T07:30:29.400Z,20.42
2019-05-01T07:32:59.510Z,20.56
2019-05-01T07:35:32.921Z,20.71
2019-05-01T07:38:02.210Z,21.09
2019-05-01T07:40:32.395Z,21.81
2019-05-01T07:43:07.756Z,22.30
2019-05-01T07:45:43.572Z,22.42
2019-05-01T07:48:14.668Z,22.63
2019-05-01T07:50:44.682Z,22.90
2019-05-01T07:53:14.636Z,22.76
2019-05-01T07:55:44.622Z,22.73
2019-05-01T07:58:15.844Z,22.58
2019-05-01T08:00:56.562Z,22.39
2019-05-01T08:03:26.187Z,22.24
2019-05-01T08:05:55.816Z,21.86
2019-05-01T08:08:25.683Z,21.95
2019-05-01T08:10:55.412Z,22.22
2019-05-01T08:13:25.038Z,22.26
2019-05-01T08:15:54.831Z,22.09
2019-05-01T08:18:27.887Z,21.84
2019-05-01T08:21:04.602Z,21.67
2019-05-01T08:23:34.220Z,21.49
2019-05-01T08:26:08.765Z,21.27
2019-05-01T08:28:46.937Z,20.89
2019-05-01T08:31:29.001Z,20.57
2019-05-01T08:34:20.694Z,20.62
2019-05-01T08:36:48.463Z,20.70
2019-05-01T08:39:18.128Z,22.41
2019-05-01T08:41:48.017Z,24.47
2019-05-01T08:44:18.709Z,27.19
2019-05-01T08:46:50.929Z,28.92
2019-05-01T08:49:34.464Z,29.62
2019-05-01T08:52:04.840Z,28.70
2019-05-01T08:54:35.396Z,27.18
2019-05-01T08:57:07.828Z,27.28
2019-05-01T08:59:36.699Z,28.44
2019-05-01T09:02:09.245Z,28.83
2019-05-01T09:04:37.650Z,28.05
2019-05-01T09:07:07.272Z,27.27
2019-05-01T09:09:39.685Z,26.92
2019-05-01T09:12:11.867Z,26.73
2019-05-01T09:14:39.568Z,26.51
2019-05-01T09:17:09.229Z,27.50
2019-05-01T09:19:38.842Z,28.13
2019-05-01T09:22:08.475Z,28.61
2019-05-01T09:24:39.730Z,28.15
2019-05-01T09:27:24.110Z,28.37
2019-05-01T09:29:53.557Z,30.13
2019-05-01T09:32:23.313Z,31.58
2019-05-01T09:34:52.939Z,32.46
2019-05-01T09:37:22.562Z,33.52
2019-05-01T09:39:52.172Z,34.48
2019-05-01T09:42:23.647Z,34.44
2019-05-01T09:44:53.200Z,35.11
2019-05-01T09:47:23.298Z,35.66
2019-05-01T09:49:53.819Z,36.68
2019-05-01T09:52:28.700Z,37.14
2019-05-01T09:55:08.912Z,34.72
2019-05-01T09:57:41.272Z,32.73
2019-05-01T10:00:12.244Z,32.51
2019-05-01T10:02:43.824Z,33.85
2019-05-01T10:05:13.202Z,36.78
2019-05-01T10:07:42.826Z,35.66
2019-05-01T10:10:12.833Z,37.11
2019-05-01T10:12:47.033Z,38.29
2019-05-01T10:15:14.608Z,39.88
2019-05-01T10:17:44.370Z,40.37
2019-05-01T10:20:14.227Z,41.31
2019-05-01T10:22:43.887Z,42.01
2019-05-01T10:25:13.807Z,42.74
2019-05-01T10:27:45.202Z,43.23
2019-05-01T10:30:22.836Z,43.32
2019-05-01T10:32:57.913Z,43.45
2019-05-01T10:35:41.976Z,44.61
2019-05-01T10:38:04.688Z,45.38
2019-05-01T10:40:34.261Z,44.70
2019-05-01T10:43:04.244Z,41.56
2019-05-01T10:45:34.071Z,40.62
2019-05-01T10:48:03.794Z,40.83
2019-05-01T10:50:33.523Z,40.41
2019-05-01T10:53:03.398Z,41.55
2019-05-01T10:55:33.062Z,43.14
2019-05-01T10:58:03.393Z,44.37
2019-05-01T11:00:34.246Z,45.22
2019-05-01T11:03:03.917Z,46.01
2019-05-01T11:05:33.577Z,46.97
2019-05-01T11:08:03.349Z,48.19
2019-05-01T11:10:32.976Z,47.50
2019-05-01T11:13:02.787Z,45.73
2019-05-01T11:15:32.389Z,43.24
2019-05-01T11:18:01.993Z,41.95
2019-05-01T11:20:31.625Z,42.96
2019-05-01T11:23:01.300Z,41.59
2019-05-01T11:25:30.916Z,42.19
2019-05-01T11:28:00.552Z,-142.58
2019-05-01T11:30:30.174Z,45.01
2019-05-01T11:33:04.046Z,48.09
2019-05-01T11:35:51.633Z,48.19
2019-05-01T11:38:29.908Z,46.90
2019-05-01T11:41:01.154Z,47.30
2019-05-01T11:43:30.763Z,49.32
2019-05-01T11:46:00.372Z,50.91
2019-05-01T11:48:31.928Z,51.91
2019-05-01T11:51:01.309Z,51.91
2019-05-01T11:53:30.974Z,50.96
2019-05-01T11:56:00.527Z,50.88
2019-05-01T11:58:30.131Z,52.19
2019-05-01T12:01:01.380Z,52.24
2019-05-01T12:03:30.981Z,52.31
2019-05-01T12:06:00.615Z,54.31
2019-05-01T12:08:30.241Z,53.34
2019-05-01T12:11:00.717Z,55.21
2019-05-01T12:13:42.744Z,53.59
2019-05-01T12:16:06.202Z,50.50
2019-05-01T12:18:35.808Z,47.00
2019-05-01T12:21:05.417Z,43.37
2019-05-01T12:23:35.026Z,40.78
2019-05-01T12:26:04.694Z,39.20
2019-05-01T12:28:34.302Z,38.86
2019-05-01T12:31:05.561Z,39.12
2019-05-01T12:33:35.160Z,38.64
2019-05-01T12:36:05.288Z,36.91
2019-05-01T12:38:34.897Z,36.40
2019-05-01T12:41:21.191Z,38.45
2019-05-01T12:43:50.792Z,42.37
2019-05-01T12:46:40.264Z,45.02
2019-05-01T12:49:09.874Z,47.31
2019-05-01T12:51:40.842Z,46.13
2019-05-01T12:54:17.545Z,43.62
2019-05-01T12:56:48.805Z,42.49
2019-05-01T12:59:18.824Z,42.73
2019-05-01T13:01:48.430Z,42.81
2019-05-01T13:04:18.027Z,42.57
2019-05-01T13:06:51.529Z,41.69
2019-05-01T13:09:21.138Z,41.05
2019-05-01T13:11:50.996Z,41.62
2019-05-01T13:14:20.596Z,42.21
2019-05-01T13:16:50.208Z,43.87
2019-05-01T13:19:19.813Z,46.13
2019-05-01T13:21:49.429Z,49.15
2019-05-01T13:24:19.016Z,50.18
2019-05-01T13:26:53.132Z,51.18
2019-05-01T13:29:30.000Z,52.60
2019-05-01T13:32:13.365Z,53.49
2019-05-01T13:34:43.002Z,53.84
2019-05-01T13:37:12.685Z,53.95
2019-05-01T13:39:42.300Z,54.50
2019-05-01T13:42:11.905Z,54.03
2019-05-01T13:44:41.542Z,54.00
2019-05-01T13:47:11.135Z,53.22
2019-05-01T13:49:40.754Z,53.30
2019-05-01T13:52:10.376Z,52.98
2019-05-01T13:54:39.987Z,52.56
2019-05-01T13:57:09.625Z,52.04
2019-05-01T13:59:39.223Z,51.20
2019-05-01T14:02:08.897Z,51.42
2019-05-01T14:04:38.665Z,51.57
2019-05-01T14:07:16.416Z,52.05
2019-05-01T14:09:40.418Z,52.66
2019-05-01T14:12:10.042Z,53.14
2019-05-01T14:14:39.633Z,52.96
2019-05-01T14:17:09.236Z,52.62
2019-05-01T14:19:40.462Z,51.67
2019-05-01T14:22:27.569Z,50.32
2019-05-01T14:24:58.789Z,48.97
2019-05-01T14:27:28.390Z,48.30
2019-05-01T14:29:58.040Z,48.88
2019-05-01T14:32:28.017Z,49.08
2019-05-01T14:34:57.614Z,47.94
2019-05-01T14:37:29.850Z,46.11
2019-05-01T14:39:58.543Z,46.03
2019-05-01T14:42:28.192Z,44.49
2019-05-01T14:44:57.805Z,40.37
2019-05-01T14:47:27.408Z,36.93
2019-05-01T14:49:57.356Z,34.35
2019-05-01T14:52:26.948Z,32.77
2019-05-01T14:54:56.563Z,31.72
2019-05-01T14:57:26.164Z,30.99
2019-05-01T14:59:56.640Z,30.36
2019-05-01T15:02:26.259Z,29.55
2019-05-01T15:04:55.867Z,29.11
2019-05-01T15:07:25.468Z,28.96
2019-05-01T15:09:55.072Z,28.76
2019-05-01T15:12:24.696Z,28.84
2019-05-01T15:14:54.059Z,28.94
2019-05-01T15:17:25.309Z,28.86
2019-05-01T15:19:56.543Z,28.66
2019-05-01T15:22:26.144Z,28.32
2019-05-01T15:24:55.744Z,28.01
2019-05-01T15:27:25.357Z,27.82
2019-05-01T15:29:54.983Z,27.65
2019-05-01T15:32:24.575Z,27.41
2019-05-01T15:34:54.238Z,27.29
2019-05-01T15:37:23.952Z,27.15
2019-05-01T15:39:57.963Z,26.89
2019-05-01T15:42:29.302Z,26.69
2019-05-01T15:44:58.970Z,26.53
2019-05-01T15:47:28.583Z,26.46
2019-05-01T15:49:58.191Z,26.43
2019-05-01T15:52:27.810Z,26.30
2019-05-01T15:54:57.412Z,26.15
2019-05-01T15:57:27.068Z,26.05
2019-05-01T15:59:56.663Z,26.00
2019-05-01T16:02:26.286Z,25.89
2019-05-01T16:04:55.879Z,25.85
2019-05-01T16:07:25.499Z,25.86
2019-05-01T16:09:55.107Z,25.89
2019-05-01T16:12:26.385Z,25.84
2019-05-01T16:14:56.005Z,25.72
2019-05-01T16:17:25.580Z,25.57
2019-05-01T16:19:55.178Z,25.28
2019-05-01T16:22:24.804Z,24.94
2019-05-01T16:24:54.398Z,24.69
2019-05-01T16:27:24.022Z,24.60
2019-05-01T16:29:53.619Z,24.60
2019-05-01T16:32:23.408Z,24.50
2019-05-01T16:34:53.013Z,24.31
2019-05-01T16:37:22.605Z,24.33
2019-05-01T16:39:53.862Z,24.39
2019-05-01T16:42:23.966Z,24.54
2019-05-01T16:44:53.574Z,24.81
2019-05-01T16:47:23.168Z,25.18
2019-05-01T16:49:52.768Z,25.14
2019-05-01T16:52:24.180Z,24.89
2019-05-01T16:54:59.516Z,24.57
2019-05-01T16:57:25.283Z,24.27
2019-05-01T16:59:54.960Z,23.96
2019-05-01T17:02:42.636Z,23.72
2019-05-01T17:05:13.943Z,23.52
2019-05-01T17:07:49.442Z,23.29
2019-05-01T17:10:26.754Z,23.12
2019-05-01T17:12:56.838Z,22.97
2019-05-01T17:15:28.143Z,22.87
2019-05-01T17:17:57.759Z,22.77
2019-05-01T17:20:27.834Z,22.64
2019-05-01T17:22:57.497Z,22.48
2019-05-01T17:25:29.523Z,22.42
2019-05-01T17:28:02.882Z,22.34
2019-05-01T17:30:42.328Z,22.22
2019-05-01T17:33:20.018Z,22.06
2019-05-01T17:35:43.349Z,21.92
2019-05-01T17:38:13.009Z,21.78
2019-05-01T17:40:42.606Z,21.73
2019-05-01T17:43:13.419Z,21.58
2019-05-01T17:45:43.516Z,21.49
2019-05-01T17:48:13.113Z,21.41
2019-05-01T17:50:42.722Z,21.30
2019-05-01T17:53:12.326Z,21.15
2019-05-01T17:55:41.943Z,21.02
2019-05-01T17:58:11.546Z,20.96
2019-05-01T18:00:42.864Z,20.90
2019-05-01T18:03:32.000Z,20.79
2019-05-01T18:06:03.270Z,20.65
2019-05-01T18:08:32.883Z,20.53
2019-05-01T18:11:02.502Z,20.41
2019-05-01T18:13:32.183Z,20.32
2019-05-01T18:16:01.782Z,20.27
2019-05-01T18:18:31.658Z,20.17
2019-05-01T18:21:01.266Z,20.07
2019-05-01T18:23:32.510Z,20.00
2019-05-01T18:26:04.893Z,19.99
2019-05-01T18:28:34.858Z,19.91
2019-05-01T18:31:06.107Z,19.83
2019-05-01T18:33:35.700Z,19.72
2019-05-01T18:36:06.443Z,19.64
2019-05-01T18:38:37.687Z,19.61
2019-05-01T18:41:08.931Z,19.54
2019-05-01T18:43:38.536Z,19.43
2019-05-01T18:46:09.390Z,19.35
2019-05-01T18:48:39.022Z,19.27
2019-05-01T18:51:08.805Z,19.21
2019-05-01T18:53:38.405Z,19.12
2019-05-01T18:56:08.015Z,19.06
2019-05-01T18:58:37.614Z,18.96
2019-05-01T19:01:09.329Z,18.93
2019-05-01T19:03:42.496Z,18.93
2019-05-01T19:06:10.116Z,18.87
2019-05-01T19:08:39.716Z,18.85
2019-05-01T19:11:12.851Z,18.86
2019-05-01T19:13:40.776Z,18.89
2019-05-01T19:16:10.459Z,18.79
2019-05-01T19:18:40.236Z,18.72
2019-05-01T19:21:10.419Z,18.63
2019-05-01T19:23:40.100Z,18.61
2019-05-01T19:26:10.775Z,18.60
2019-05-01T19:28:40.364Z,18.51
2019-05-01T19:31:10.157Z,18.53
2019-05-01T19:33:41.786Z,18.55
2019-05-01T19:36:11.333Z,18.53
2019-05-01T19:38:40.928Z,18.43
2019-05-01T19:41:14.022Z,18.46
2019-05-01T19:43:42.262Z,18.44
2019-05-01T19:46:12.067Z,18.31
2019-05-01T19:48:45.394Z,18.29
2019-05-01T19:51:13.876Z,18.24
2019-05-01T19:53:46.612Z,18.18
2019-05-01T19:56:16.635Z,18.12
2019-05-01T19:58:46.232Z,18.08
2019-05-01T20:01:15.857Z,18.08
2019-05-01T20:03:45.446Z,18.04
2019-05-01T20:06:15.120Z,17.95
2019-05-01T20:08:44.729Z,17.95
2019-05-01T20:11:14.339Z,17.91
2019-05-01T20:13:43.936Z,17.86
2019-05-01T20:16:14.388Z,17.79
2019-05-01T20:18:44.228Z,17.73
2019-05-01T20:21:13.818Z,17.66
2019-05-01T20:23:43.414Z,17.60
2019-05-01T20:26:13.027Z,17.61
2019-05-01T20:28:42.631Z,17.55
2019-05-01T20:31:12.248Z,17.57
2019-05-01T20:33:44.484Z,17.52
2019-05-01T20:36:13.187Z,17.48
2019-05-01T20:38:42.853Z,17.45
2019-05-01T20:41:15.817Z,17.47
2019-05-01T20:43:45.349Z,17.48
2019-05-01T20:46:15.084Z,17.39
2019-05-01T20:48:44.687Z,17.37
2019-05-01T20:51:14.294Z,17.30
2019-05-01T20:53:43.910Z,17.33
2019-05-01T20:56:24.215Z,17.32
2019-05-01T20:58:57.845Z,17.27
2019-05-01T21:01:28.259Z,17.18
2019-05-01T21:04:16.296Z,17.12
2019-05-01T21:06:57.618Z,17.14
2019-05-01T21:09:28.865Z,17.17
2019-05-01T21:12:05.463Z,17.14
2019-05-01T21:14:31.080Z,17.14
2019-05-01T21:17:00.687Z,17.09
2019-05-01T21:19:32.576Z,17.07
2019-05-01T21:22:01.628Z,16.69
2019-05-01T21:24:33.971Z,16.99
2019-05-01T21:27:03.617Z,17.10
2019-05-01T21:29:34.345Z,17.11
2019-05-01T21:32:04.348Z,17.01
2019-05-01T21:34:33.952Z,16.96
2019-05-01T21:37:03.559Z,16.95
2019-05-01T21:39:33.513Z,16.89
2019-05-01T21:42:06.901Z,16.91
2019-05-01T21:44:34.542Z,16.92
2019-05-01T21:47:04.174Z,16.93
2019-05-01T21:49:33.783Z,16.94
2019-05-01T21:52:03.800Z,16.95
2019-05-01T21:54:34.722Z,16.89
2019-05-01T21:57:04.337Z,16.91
2019-05-01T21:59:35.361Z,16.88
2019-05-01T22:02:09.990Z,16.95
2019-05-01T22:04:36.724Z,16.98
2019-05-01T22:07:07.663Z,17.09
2019-05-01T22:09:39.094Z,17.19
2019-05-01T22:12:13.060Z,17.30
2019-05-01T22:14:44.278Z,17.38
2019-05-01T22:17:15.677Z,17.45
2019-05-01T22:19:45.649Z,17.48
2019-05-01T22:22:22.997Z,17.50
2019-05-01T22:24:54.245Z,17.51
2019-05-01T22:27:26.051Z,17.46
2019-05-01T22:30:10.778Z,17.44
2019-05-01T22:32:44.927Z,17.35
2019-05-01T22:35:17.139Z,17.33
2019-05-01T22:37:46.738Z,17.30
2019-05-01T22:40:18.606Z,17.24
2019-05-01T22:42:48.206Z,17.16
2019-05-01T22:45:24.536Z,17.17
2019-05-01T22:47:54.131Z,17.23
2019-05-01T22:50:24.473Z,17.16
2019-05-01T22:52:54.073Z,17.13
2019-05-01T22:55:25.340Z,17.14
2019-05-01T22:57:55.143Z,17.16
2019-05-01T23:00:30.793Z,17.13
2019-05-01T23:03:05.596Z,17.05
2019-05-01T23:05:33.353Z,16.97
2019-05-01T23:08:02.958Z,16.99
2019-05-01T23:10:32.986Z,16.89
2019-05-01T23:13:02.584Z,16.76
2019-05-01T23:15:32.932Z,16.69
2019-05-01T23:18:02.609Z,16.61
2019-05-01T23:20:34.777Z,16.56
2019-05-01T23:23:03.540Z,16.42
2019-05-01T23:25:36.527Z,16.32
2019-05-01T23:28:06.012Z,16.20
2019-05-01T23:30:35.710Z,16.13
2019-05-01T23:33:05.444Z,16.04
2019-05-01T23:35:35.060Z,15.97
2019-05-01T23:38:04.663Z,15.95
2019-05-01T23:40:34.284Z,15.83
2019-05-01T23:43:03.869Z,15.75
2019-05-01T23:45:33.498Z,15.68
2019-05-01T23:48:03.095Z,15.55
2019-05-01T23:50:32.722Z,15.57
2019-05-01T23:53:02.322Z,15.58
2019-05-01T23:55:31.938Z,15.46
2019-05-01T23:58:01.544Z,15.40
